sensor_id;sensor_type;location;lat;lon;timestamp;P1;durP1;ratioP1;P2;durP2;ratioP2
25069;SDS011;13064;48.162;11.536;2023-03-01T00:01:21;24.75;;;13.18;;
25069;SDS011;13064;48.162;11.536;2023-03-01T00:03:49;21.17;;;13.20;;
25069;SDS011;13064;48.162;11.536;2023-03-01T00:06:17;22.23;;;14.32;;
25069;SDS011;13064;48.162;11.536;2023-03-01T00:08:45;24.00;;;14.55;;
25069;SDS011;13064;48.162;11.536;2023-03-01T00:11:14;22.15;;;14.32;;
25069;SDS011;13064;48.162;11.536;2023-03-01T00:13:44;22.75;;;14.48;;
25069;SDS011;13064;48.162;11.536;2023-03-01T00:16:14;23.98;;;13.40;;
25069;SDS011;13064;48.162;11.536;2023-03-01T00:18:42;23.73;;;14.23;;
25069;SDS011;13064;48.162;11.536;2023-03-01T00:21:11;22.58;;;14.25;;
25069;SDS011;13064;48.162;11.536;2023-03-01T00:23:38;22.15;;;13.80;;
25069;SDS011;13064;48.162;11.536;2023-03-01T00:26:07;21.75;;;14.10;;
25069;SDS011;13064;48.162;11.536;2023-03-01T00:28:36;21.02;;;13.57;;
25069;SDS011;13064;48.162;11.536;2023-03-01T00:33:32;21.77;;;13.55;;
25069;SDS011;13064;48.162;11.536;2023-03-01T00:36:00;21.45;;;14.27;;
25069;SDS011;13064;48.162;11.536;2023-03-01T00:38:28;22.65;;;14.60;;
25069;SDS011;13064;48.162;11.536;2023-03-01T00:40:56;25.15;;;15.00;;
25069;SDS011;13064;48.162;11.536;2023-03-01T00:43:29;21.63;;;13.38;;
25069;SDS011;13064;48.162;11.536;2023-03-01T00:46:00;21.63;;;13.32;;
25069;SDS011;13064;48.162;11.536;2023-03-01T00:48:28;24.00;;;14.93;;
25069;SDS011;13064;48.162;11.536;2023-03-01T00:50:55;22.55;;;13.90;;
25069;SDS011;13064;48.162;11.536;2023-03-01T00:53:23;23.25;;;14.50;;
25069;SDS011;13064;48.162;11.536;2023-03-01T00:55:51;21.38;;;14.07;;
25069;SDS011;13064;48.162;11.536;2023-03-01T00:58:18;23.40;;;14.23;;
25069;SDS011;13064;48.162;11.536;2023-03-01T01:00:46;25.50;;;15.20;;
25069;SDS011;13064;48.162;11.536;2023-03-01T01:03:14;21.10;;;14.10;;
25069;SDS011;13064;48.162;11.536;2023-03-01T01:05:41;23.15;;;14.88;;
25069;SDS011;13064;48.162;11.536;2023-03-01T01:08:09;22.80;;;14.93;;
25069;SDS011;13064;48.162;11.536;2023-03-01T01:10:37;20.25;;;13.82;;
25069;SDS011;13064;48.162;11.536;2023-03-01T01:13:04;23.58;;;14.25;;
25069;SDS011;13064;48.162;11.536;2023-03-01T01:15:34;22.63;;;14.40;;
25069;SDS011;13064;48.162;11.536;2023-03-01T01:18:02;22.15;;;13.73;;
25069;SDS011;13064;48.162;11.536;2023-03-01T01:20:30;22.25;;;14.40;;
25069;SDS011;13064;48.162;11.536;2023-03-01T01:22:58;24.55;;;14.40;;
25069;SDS011;13064;48.162;11.536;2023-03-01T01:25:25;21.40;;;14.48;;
25069;SDS011;13064;48.162;11.536;2023-03-01T01:27:53;20.85;;;13.65;;
25069;SDS011;13064;48.162;11.536;2023-03-01T01:30:21;22.25;;;13.95;;
25069;SDS011;13064;48.162;11.536;2023-03-01T01:32:48;22.40;;;14.77;;
25069;SDS011;13064;48.162;11.536;2023-03-01T01:35:16;23.67;;;13.60;;
25069;SDS011;13064;48.162;11.536;2023-03-01T01:37:44;22.25;;;13.77;;
25069;SDS011;13064;48.162;11.536;2023-03-01T01:40:11;21.40;;;13.52;;
25069;SDS011;13064;48.162;11.536;2023-03-01T01:42:39;21.77;;;14.85;;
25069;SDS011;13064;48.162;11.536;2023-03-01T01:47:54;23.90;;;14.63;;
25069;SDS011;13064;48.162;11.536;2023-03-01T01:50:22;23.15;;;14.30;;
25069;SDS011;13064;48.162;11.536;2023-03-01T01:52:50;25.98;;;14.73;;
25069;SDS011;13064;48.162;11.536;2023-03-01T01:55:20;23.08;;;14.48;;
25069;SDS011;13064;48.162;11.536;2023-03-01T01:57:49;21.60;;;14.02;;
25069;SDS011;13064;48.162;11.536;2023-03-01T02:00:20;21.77;;;14.30;;
25069;SDS011;13064;48.162;11.536;2023-03-01T02:02:49;23.38;;;14.27;;
25069;SDS011;13064;48.162;11.536;2023-03-01T02:08:05;20.23;;;13.57;;
25069;SDS011;13064;48.162;11.536;2023-03-01T02:10:33;24.50;;;14.23;;
25069;SDS011;13064;48.162;11.536;2023-03-01T02:13:02;22.50;;;14.35;;
25069;SDS011;13064;48.162;11.536;2023-03-01T02:15:31;22.90;;;14.50;;
25069;SDS011;13064;48.162;11.536;2023-03-01T02:18:00;21.98;;;14.65;;
25069;SDS011;13064;48.162;11.536;2023-03-01T02:23:08;21.60;;;13.98;;
25069;SDS011;13064;48.162;11.536;2023-03-01T02:25:39;22.48;;;14.20;;
25069;SDS011;13064;48.162;11.536;2023-03-01T02:30:35;22.35;;;14.05;;
25069;SDS011;13064;48.162;11.536;2023-03-01T02:33:03;19.70;;;13.20;;
25069;SDS011;13064;48.162;11.536;2023-03-01T02:35:32;20.88;;;14.07;;
25069;SDS011;13064;48.162;11.536;2023-03-01T02:38:01;19.63;;;13.90;;
25069;SDS011;13064;48.162;11.536;2023-03-01T02:40:30;21.63;;;14.05;;
25069;SDS011;13064;48.162;11.536;2023-03-01T02:42:58;20.70;;;13.90;;
25069;SDS011;13064;48.162;11.536;2023-03-01T02:45:26;22.73;;;15.15;;
25069;SDS011;13064;48.162;11.536;2023-03-01T02:47:54;20.85;;;13.15;;
25069;SDS011;13064;48.162;11.536;2023-03-01T02:53:05;24.83;;;14.38;;
25069;SDS011;13064;48.162;11.536;2023-03-01T02:55:35;22.50;;;14.07;;
25069;SDS011;13064;48.162;11.536;2023-03-01T02:58:03;19.98;;;13.23;;
25069;SDS011;13064;48.162;11.536;2023-03-01T03:00:34;21.88;;;13.70;;
25069;SDS011;13064;48.162;11.536;2023-03-01T03:03:06;24.80;;;14.13;;
25069;SDS011;13064;48.162;11.536;2023-03-01T03:05:34;21.77;;;13.80;;
25069;SDS011;13064;48.162;11.536;2023-03-01T03:08:02;22.00;;;14.00;;
25069;SDS011;13064;48.162;11.536;2023-03-01T03:10:38;19.90;;;13.10;;
25069;SDS011;13064;48.162;11.536;2023-03-01T03:13:07;21.80;;;14.10;;
25069;SDS011;13064;48.162;11.536;2023-03-01T03:15:36;22.35;;;14.48;;
25069;SDS011;13064;48.162;11.536;2023-03-01T03:18:06;20.83;;;14.13;;
25069;SDS011;13064;48.162;11.536;2023-03-01T03:20:34;21.05;;;13.57;;
25069;SDS011;13064;48.162;11.536;2023-03-01T03:23:02;21.92;;;14.25;;
25069;SDS011;13064;48.162;11.536;2023-03-01T03:25:30;22.60;;;14.30;;
25069;SDS011;13064;48.162;11.536;2023-03-01T03:27:58;21.52;;;14.02;;
25069;SDS011;13064;48.162;11.536;2023-03-01T03:30:30;23.05;;;14.13;;
25069;SDS011;13064;48.162;11.536;2023-03-01T03:32:58;22.75;;;14.30;;
25069;SDS011;13064;48.162;11.536;2023-03-01T03:35:30;20.88;;;13.98;;
25069;SDS011;13064;48.162;11.536;2023-03-01T03:37:59;24.67;;;14.35;;
25069;SDS011;13064;48.162;11.536;2023-03-01T03:40:33;22.65;;;14.35;;
25069;SDS011;13064;48.162;11.536;2023-03-01T03:43:02;25.13;;;14.38;;
25069;SDS011;13064;48.162;11.536;2023-03-01T03:45:29;22.05;;;14.15;;
25069;SDS011;13064;48.162;11.536;2023-03-01T03:48:00;23.88;;;13.98;;
25069;SDS011;13064;48.162;11.536;2023-03-01T03:50:28;25.27;;;14.52;;
25069;SDS011;13064;48.162;11.536;2023-03-01T03:52:55;22.25;;;14.35;;
25069;SDS011;13064;48.162;11.536;2023-03-01T03:55:23;24.67;;;14.85;;
25069;SDS011;13064;48.162;11.536;2023-03-01T03:57:56;21.13;;;13.73;;
25069;SDS011;13064;48.162;11.536;2023-03-01T04:00:24;24.30;;;15.00;;
25069;SDS011;13064;48.162;11.536;2023-03-01T04:02:52;22.52;;;13.77;;
25069;SDS011;13064;48.162;11.536;2023-03-01T04:05:23;21.47;;;14.27;;
25069;SDS011;13064;48.162;11.536;2023-03-01T04:07:50;22.83;;;14.90;;
25069;SDS011;13064;48.162;11.536;2023-03-01T04:10:28;24.20;;;14.40;;
25069;SDS011;13064;48.162;11.536;2023-03-01T04:12:55;25.67;;;15.65;;
25069;SDS011;13064;48.162;11.536;2023-03-01T04:15:24;24.58;;;14.93;;
25069;SDS011;13064;48.162;11.536;2023-03-01T04:17:52;23.73;;;14.63;;
25069;SDS011;13064;48.162;11.536;2023-03-01T04:20:21;22.23;;;14.60;;
25069;SDS011;13064;48.162;11.536;2023-03-01T04:22:56;23.05;;;15.32;;
25069;SDS011;13064;48.162;11.536;2023-03-01T04:25:24;24.13;;;14.65;;
25069;SDS011;13064;48.162;11.536;2023-03-01T04:27:52;21.23;;;13.80;;
25069;SDS011;13064;48.162;11.536;2023-03-01T04:30:19;25.15;;;16.35;;
25069;SDS011;13064;48.162;11.536;2023-03-01T04:32:51;28.00;;;15.07;;
25069;SDS011;13064;48.162;11.536;2023-03-01T04:35:19;25.00;;;15.88;;
25069;SDS011;13064;48.162;11.536;2023-03-01T04:37:47;21.48;;;14.95;;
25069;SDS011;13064;48.162;11.536;2023-03-01T04:40:14;25.17;;;15.10;;
25069;SDS011;13064;48.162;11.536;2023-03-01T04:42:42;24.27;;;14.95;;
25069;SDS011;13064;48.162;11.536;2023-03-01T04:45:10;23.65;;;14.93;;
25069;SDS011;13064;48.162;11.536;2023-03-01T04:47:40;23.67;;;15.35;;
25069;SDS011;13064;48.162;11.536;2023-03-01T04:50:10;22.15;;;14.50;;
25069;SDS011;13064;48.162;11.536;2023-03-01T04:52:38;22.98;;;14.85;;
25069;SDS011;13064;48.162;11.536;2023-03-01T04:55:06;24.02;;;15.02;;
25069;SDS011;13064;48.162;11.536;2023-03-01T04:57:33;22.70;;;14.10;;
25069;SDS011;13064;48.162;11.536;2023-03-01T05:00:02;23.48;;;14.73;;
25069;SDS011;13064;48.162;11.536;2023-03-01T05:02:47;24.08;;;14.60;;
25069;SDS011;13064;48.162;11.536;2023-03-01T05:05:15;21.40;;;14.35;;
25069;SDS011;13064;48.162;11.536;2023-03-01T05:07:43;25.98;;;14.38;;
25069;SDS011;13064;48.162;11.536;2023-03-01T05:10:10;23.02;;;15.70;;
25069;SDS011;13064;48.162;11.536;2023-03-01T05:12:38;23.25;;;14.63;;
25069;SDS011;13064;48.162;11.536;2023-03-01T05:15:05;23.58;;;15.02;;
25069;SDS011;13064;48.162;11.536;2023-03-01T05:17:33;24.42;;;15.43;;
25069;SDS011;13064;48.162;11.536;2023-03-01T05:20:01;22.58;;;14.38;;
25069;SDS011;13064;48.162;11.536;2023-03-01T05:22:34;23.92;;;15.43;;
25069;SDS011;13064;48.162;11.536;2023-03-01T05:25:02;25.65;;;15.32;;
25069;SDS011;13064;48.162;11.536;2023-03-01T05:27:30;24.13;;;14.65;;
25069;SDS011;13064;48.162;11.536;2023-03-01T05:29:57;25.33;;;15.10;;
25069;SDS011;13064;48.162;11.536;2023-03-01T05:32:25;23.38;;;14.18;;
25069;SDS011;13064;48.162;11.536;2023-03-01T05:34:53;23.17;;;14.73;;
25069;SDS011;13064;48.162;11.536;2023-03-01T05:37:21;26.40;;;15.23;;
25069;SDS011;13064;48.162;11.536;2023-03-01T05:39:49;26.98;;;15.80;;
25069;SDS011;13064;48.162;11.536;2023-03-01T05:42:18;23.83;;;15.35;;
25069;SDS011;13064;48.162;11.536;2023-03-01T05:44:45;22.83;;;14.60;;
25069;SDS011;13064;48.162;11.536;2023-03-01T05:47:13;24.83;;;14.60;;
25069;SDS011;13064;48.162;11.536;2023-03-01T05:49:40;24.20;;;14.88;;
25069;SDS011;13064;48.162;11.536;2023-03-01T05:52:08;25.65;;;15.23;;
25069;SDS011;13064;48.162;11.536;2023-03-01T05:54:36;25.05;;;14.85;;
25069;SDS011;13064;48.162;11.536;2023-03-01T05:57:03;23.55;;;15.45;;
25069;SDS011;13064;48.162;11.536;2023-03-01T05:59:31;27.85;;;15.43;;
25069;SDS011;13064;48.162;11.536;2023-03-01T06:01:58;26.75;;;15.63;;
25069;SDS011;13064;48.162;11.536;2023-03-01T06:04:26;23.45;;;15.13;;
25069;SDS011;13064;48.162;11.536;2023-03-01T06:06:54;23.25;;;14.98;;
25069;SDS011;13064;48.162;11.536;2023-03-01T06:09:21;24.95;;;15.32;;
25069;SDS011;13064;48.162;11.536;2023-03-01T06:11:49;24.63;;;14.93;;
25069;SDS011;13064;48.162;11.536;2023-03-01T06:14:17;27.77;;;16.40;;
25069;SDS011;13064;48.162;11.536;2023-03-01T06:16:47;25.88;;;15.70;;
25069;SDS011;13064;48.162;11.536;2023-03-01T06:19:15;23.92;;;14.95;;
25069;SDS011;13064;48.162;11.536;2023-03-01T06:21:42;23.65;;;14.48;;
25069;SDS011;13064;48.162;11.536;2023-03-01T06:24:10;30.08;;;15.23;;
25069;SDS011;13064;48.162;11.536;2023-03-01T06:26:37;26.52;;;15.07;;
25069;SDS011;13064;48.162;11.536;2023-03-01T06:29:05;123.57;;;21.17;;
25069;SDS011;13064;48.162;11.536;2023-03-01T06:31:34;31.05;;;15.13;;
25069;SDS011;13064;48.162;11.536;2023-03-01T06:34:01;27.15;;;15.55;;
25069;SDS011;13064;48.162;11.536;2023-03-01T06:36:29;23.10;;;14.88;;
25069;SDS011;13064;48.162;11.536;2023-03-01T06:38:57;24.60;;;15.32;;
25069;SDS011;13064;48.162;11.536;2023-03-01T06:41:25;22.58;;;13.88;;
25069;SDS011;13064;48.162;11.536;2023-03-01T06:43:52;23.42;;;14.82;;
25069;SDS011;13064;48.162;11.536;2023-03-01T06:46:20;26.05;;;14.68;;
25069;SDS011;13064;48.162;11.536;2023-03-01T06:48:48;25.98;;;15.73;;
25069;SDS011;13064;48.162;11.536;2023-03-01T06:51:18;25.85;;;15.88;;
25069;SDS011;13064;48.162;11.536;2023-03-01T06:53:46;24.60;;;15.25;;
25069;SDS011;13064;48.162;11.536;2023-03-01T06:56:14;26.77;;;14.85;;
25069;SDS011;13064;48.162;11.536;2023-03-01T06:58:41;28.02;;;16.13;;
25069;SDS011;13064;48.162;11.536;2023-03-01T07:01:09;26.75;;;14.93;;
25069;SDS011;13064;48.162;11.536;2023-03-01T07:03:37;27.02;;;16.48;;
25069;SDS011;13064;48.162;11.536;2023-03-01T07:06:04;26.83;;;14.93;;
25069;SDS011;13064;48.162;11.536;2023-03-01T07:08:32;29.00;;;16.25;;
25069;SDS011;13064;48.162;11.536;2023-03-01T07:11:00;29.27;;;15.18;;
25069;SDS011;13064;48.162;11.536;2023-03-01T07:13:29;29.67;;;16.10;;
25069;SDS011;13064;48.162;11.536;2023-03-01T07:15:56;29.73;;;15.88;;
25069;SDS011;13064;48.162;11.536;2023-03-01T07:18:24;25.25;;;15.10;;
25069;SDS011;13064;48.162;11.536;2023-03-01T07:20:51;26.10;;;15.05;;
25069;SDS011;13064;48.162;11.536;2023-03-01T07:23:19;25.45;;;15.27;;
25069;SDS011;13064;48.162;11.536;2023-03-01T07:25:53;25.50;;;14.60;;
25069;SDS011;13064;48.162;11.536;2023-03-01T07:28:24;25.88;;;15.30;;
25069;SDS011;13064;48.162;11.536;2023-03-01T07:30:52;26.30;;;14.90;;
25069;SDS011;13064;48.162;11.536;2023-03-01T07:33:20;22.75;;;15.07;;
25069;SDS011;13064;48.162;11.536;2023-03-01T07:35:48;28.90;;;15.32;;
25069;SDS011;13064;48.162;11.536;2023-03-01T07:38:15;28.08;;;16.23;;
25069;SDS011;13064;48.162;11.536;2023-03-01T07:40:43;26.05;;;15.32;;
25069;SDS011;13064;48.162;11.536;2023-03-01T07:43:10;28.88;;;15.13;;
25069;SDS011;13064;48.162;11.536;2023-03-01T07:45:38;26.73;;;15.20;;
25069;SDS011;13064;48.162;11.536;2023-03-01T07:48:06;27.80;;;15.80;;
25069;SDS011;13064;48.162;11.536;2023-03-01T07:50:33;28.38;;;16.20;;
25069;SDS011;13064;48.162;11.536;2023-03-01T07:53:01;26.60;;;15.40;;
25069;SDS011;13064;48.162;11.536;2023-03-01T07:55:29;28.08;;;16.20;;
25069;SDS011;13064;48.162;11.536;2023-03-01T07:57:56;24.83;;;14.98;;
25069;SDS011;13064;48.162;11.536;2023-03-01T08:00:24;25.58;;;15.95;;
25069;SDS011;13064;48.162;11.536;2023-03-01T08:02:52;26.23;;;14.70;;
25069;SDS011;13064;48.162;11.536;2023-03-01T08:05:20;30.60;;;15.98;;
25069;SDS011;13064;48.162;11.536;2023-03-01T08:07:48;27.63;;;16.25;;
25069;SDS011;13064;48.162;11.536;2023-03-01T08:10:16;28.35;;;15.45;;
25069;SDS011;13064;48.162;11.536;2023-03-01T08:12:44;29.13;;;15.77;;
25069;SDS011;13064;48.162;11.536;2023-03-01T08:15:11;26.13;;;15.80;;
25069;SDS011;13064;48.162;11.536;2023-03-01T08:17:39;25.55;;;14.63;;
25069;SDS011;13064;48.162;11.536;2023-03-01T08:20:07;29.17;;;16.23;;
25069;SDS011;13064;48.162;11.536;2023-03-01T08:22:35;26.58;;;14.88;;
25069;SDS011;13064;48.162;11.536;2023-03-01T08:25:03;24.88;;;15.52;;
25069;SDS011;13064;48.162;11.536;2023-03-01T08:27:31;26.08;;;16.63;;
25069;SDS011;13064;48.162;11.536;2023-03-01T08:29:58;25.40;;;15.70;;
25069;SDS011;13064;48.162;11.536;2023-03-01T08:32:26;26.42;;;15.20;;
25069;SDS011;13064;48.162;11.536;2023-03-01T08:34:54;26.75;;;16.65;;
25069;SDS011;13064;48.162;11.536;2023-03-01T08:37:21;25.25;;;15.32;;
25069;SDS011;13064;48.162;11.536;2023-03-01T08:39:49;28.15;;;16.17;;
25069;SDS011;13064;48.162;11.536;2023-03-01T08:42:17;31.02;;;16.95;;
25069;SDS011;13064;48.162;11.536;2023-03-01T08:44:44;27.08;;;15.95;;
25069;SDS011;13064;48.162;11.536;2023-03-01T08:47:12;27.60;;;16.33;;
25069;SDS011;13064;48.162;11.536;2023-03-01T08:49:40;30.45;;;15.27;;
25069;SDS011;13064;48.162;11.536;2023-03-01T08:52:07;29.80;;;15.50;;
25069;SDS011;13064;48.162;11.536;2023-03-01T08:54:36;25.35;;;15.55;;
25069;SDS011;13064;48.162;11.536;2023-03-01T08:57:03;25.92;;;16.60;;
25069;SDS011;13064;48.162;11.536;2023-03-01T08:59:31;27.08;;;15.30;;
25069;SDS011;13064;48.162;11.536;2023-03-01T09:02:04;25.45;;;14.90;;
25069;SDS011;13064;48.162;11.536;2023-03-01T09:04:32;28.92;;;16.88;;
25069;SDS011;13064;48.162;11.536;2023-03-01T09:07:00;27.58;;;16.63;;
25069;SDS011;13064;48.162;11.536;2023-03-01T09:09:27;25.48;;;15.82;;
25069;SDS011;13064;48.162;11.536;2023-03-01T09:11:55;27.25;;;16.77;;
25069;SDS011;13064;48.162;11.536;2023-03-01T09:14:22;27.23;;;16.10;;
25069;SDS011;13064;48.162;11.536;2023-03-01T09:16:50;29.50;;;17.05;;
25069;SDS011;13064;48.162;11.536;2023-03-01T09:19:18;25.70;;;16.25;;
25069;SDS011;13064;48.162;11.536;2023-03-01T09:21:45;26.25;;;17.20;;
25069;SDS011;13064;48.162;11.536;2023-03-01T09:24:23;28.25;;;17.13;;
25069;SDS011;13064;48.162;11.536;2023-03-01T09:26:52;24.83;;;14.77;;
25069;SDS011;13064;48.162;11.536;2023-03-01T09:29:20;24.75;;;15.32;;
25069;SDS011;13064;48.162;11.536;2023-03-01T09:31:48;30.77;;;16.83;;
25069;SDS011;13064;48.162;11.536;2023-03-01T09:34:15;24.95;;;16.50;;
25069;SDS011;13064;48.162;11.536;2023-03-01T09:36:49;23.30;;;15.60;;
25069;SDS011;13064;48.162;11.536;2023-03-01T09:39:18;31.15;;;16.52;;
25069;SDS011;13064;48.162;11.536;2023-03-01T09:47:09;29.23;;;16.65;;
25069;SDS011;13064;48.162;11.536;2023-03-01T09:49:39;30.90;;;16.73;;
25069;SDS011;13064;48.162;11.536;2023-03-01T09:53:17;26.38;;;16.00;;
25069;SDS011;13064;48.162;11.536;2023-03-01T09:55:13;23.23;;;15.68;;
25069;SDS011;13064;48.162;11.536;2023-03-01T09:57:43;28.42;;;17.48;;
25069;SDS011;13064;48.162;11.536;2023-03-01T10:02:56;29.77;;;17.13;;
25069;SDS011;13064;48.162;11.536;2023-03-01T10:12:52;24.00;;;15.20;;
25069;SDS011;13064;48.162;11.536;2023-03-01T10:15:34;26.45;;;16.02;;
25069;SDS011;13064;48.162;11.536;2023-03-01T10:18:06;27.67;;;15.85;;
25069;SDS011;13064;48.162;11.536;2023-03-01T10:20:42;29.15;;;16.67;;
25069;SDS011;13064;48.162;11.536;2023-03-01T10:23:11;24.58;;;16.15;;
25069;SDS011;13064;48.162;11.536;2023-03-01T10:28:16;26.73;;;16.23;;
25069;SDS011;13064;48.162;11.536;2023-03-01T10:30:44;24.45;;;16.52;;
25069;SDS011;13064;48.162;11.536;2023-03-01T10:33:35;26.08;;;17.08;;
25069;SDS011;13064;48.162;11.536;2023-03-01T10:36:01;26.42;;;16.38;;
25069;SDS011;13064;48.162;11.536;2023-03-01T10:38:30;29.92;;;17.02;;
25069;SDS011;13064;48.162;11.536;2023-03-01T10:41:06;28.75;;;17.08;;
25069;SDS011;13064;48.162;11.536;2023-03-01T10:43:53;24.08;;;16.33;;
25069;SDS011;13064;48.162;11.536;2023-03-01T10:46:29;27.85;;;17.30;;
25069;SDS011;13064;48.162;11.536;2023-03-01T10:49:05;24.92;;;16.40;;
25069;SDS011;13064;48.162;11.536;2023-03-01T10:51:33;24.63;;;16.35;;
25069;SDS011;13064;48.162;11.536;2023-03-01T10:54:00;23.95;;;16.25;;
25069;SDS011;13064;48.162;11.536;2023-03-01T10:56:28;23.00;;;16.38;;
25069;SDS011;13064;48.162;11.536;2023-03-01T10:59:19;22.95;;;16.52;;
25069;SDS011;13064;48.162;11.536;2023-03-01T11:02:01;24.08;;;15.88;;
25069;SDS011;13064;48.162;11.536;2023-03-01T11:04:37;23.30;;;16.75;;
25069;SDS011;13064;48.162;11.536;2023-03-01T11:07:05;23.30;;;17.27;;
25069;SDS011;13064;48.162;11.536;2023-03-01T11:09:33;23.40;;;17.13;;
25069;SDS011;13064;48.162;11.536;2023-03-01T11:12:05;23.00;;;17.07;;
25069;SDS011;13064;48.162;11.536;2023-03-01T11:14:35;24.05;;;17.02;;
25069;SDS011;13064;48.162;11.536;2023-03-01T11:17:04;21.20;;;16.88;;
25069;SDS011;13064;48.162;11.536;2023-03-01T11:19:32;23.88;;;18.15;;
25069;SDS011;13064;48.162;11.536;2023-03-01T11:22:05;23.98;;;17.80;;
25069;SDS011;13064;48.162;11.536;2023-03-01T11:24:45;22.70;;;17.25;;
25069;SDS011;13064;48.162;11.536;2023-03-01T11:27:31;23.45;;;16.67;;
25069;SDS011;13064;48.162;11.536;2023-03-01T11:32:47;23.25;;;16.42;;
25069;SDS011;13064;48.162;11.536;2023-03-01T11:35:18;22.65;;;16.77;;
25069;SDS011;13064;48.162;11.536;2023-03-01T11:38:03;23.30;;;16.95;;
25069;SDS011;13064;48.162;11.536;2023-03-01T11:40:38;21.55;;;16.05;;
25069;SDS011;13064;48.162;11.536;2023-03-01T11:43:13;20.15;;;16.00;;
25069;SDS011;13064;48.162;11.536;2023-03-01T11:45:47;23.77;;;15.77;;
25069;SDS011;13064;48.162;11.536;2023-03-01T11:51:38;20.98;;;16.27;;
25069;SDS011;13064;48.162;11.536;2023-03-01T11:57:20;21.77;;;15.98;;
25069;SDS011;13064;48.162;11.536;2023-03-01T12:10:22;22.15;;;17.05;;
25069;SDS011;13064;48.162;11.536;2023-03-01T12:15:45;23.05;;;16.90;;
25069;SDS011;13064;48.162;11.536;2023-03-01T12:21:55;20.70;;;16.75;;
25069;SDS011;13064;48.162;11.536;2023-03-01T12:29:05;23.42;;;17.00;;
25069;SDS011;13064;48.162;11.536;2023-03-01T12:39:59;23.73;;;17.10;;
25069;SDS011;13064;48.162;11.536;2023-03-01T12:42:34;20.77;;;16.20;;
25069;SDS011;13064;48.162;11.536;2023-03-01T12:50:43;21.40;;;16.98;;
25069;SDS011;13064;48.162;11.536;2023-03-01T12:53:18;25.27;;;16.77;;
25069;SDS011;13064;48.162;11.536;2023-03-01T12:55:47;19.85;;;16.80;;
25069;SDS011;13064;48.162;11.536;2023-03-01T13:03:43;21.77;;;16.88;;
25069;SDS011;13064;48.162;11.536;2023-03-01T13:06:17;22.65;;;16.77;;
25069;SDS011;13064;48.162;11.536;2023-03-01T13:08:54;20.97;;;17.00;;
25069;SDS011;13064;48.162;11.536;2023-03-01T13:11:23;18.67;;;16.67;;
25069;SDS011;13064;48.162;11.536;2023-03-01T13:13:51;20.38;;;17.15;;
25069;SDS011;13064;48.162;11.536;2023-03-01T13:19:23;25.50;;;17.42;;
25069;SDS011;13064;48.162;11.536;2023-03-01T13:21:52;22.00;;;17.08;;
25069;SDS011;13064;48.162;11.536;2023-03-01T13:24:31;23.15;;;17.25;;
25069;SDS011;13064;48.162;11.536;2023-03-01T13:29:44;24.23;;;17.40;;
25069;SDS011;13064;48.162;11.536;2023-03-01T13:32:25;24.52;;;18.17;;
25069;SDS011;13064;48.162;11.536;2023-03-01T13:37:45;22.88;;;16.88;;
25069;SDS011;13064;48.162;11.536;2023-03-01T13:42:52;20.92;;;16.55;;
25069;SDS011;13064;48.162;11.536;2023-03-01T13:45:36;21.33;;;16.88;;
25069;SDS011;13064;48.162;11.536;2023-03-01T13:51:09;25.27;;;17.20;;
25069;SDS011;13064;48.162;11.536;2023-03-01T13:53:45;27.83;;;16.92;;
25069;SDS011;13064;48.162;11.536;2023-03-01T13:58:54;22.65;;;16.85;;
25069;SDS011;13064;48.162;11.536;2023-03-01T14:01:26;22.67;;;16.27;;
25069;SDS011;13064;48.162;11.536;2023-03-01T14:03:54;23.27;;;17.08;;
25069;SDS011;13064;48.162;11.536;2023-03-01T14:06:24;23.98;;;17.13;;
25069;SDS011;13064;48.162;11.536;2023-03-01T14:09:39;23.42;;;17.00;;
25069;SDS011;13064;48.162;11.536;2023-03-01T14:19:24;23.67;;;17.55;;
25069;SDS011;13064;48.162;11.536;2023-03-01T14:22:05;24.98;;;17.85;;
25069;SDS011;13064;48.162;11.536;2023-03-01T14:24:44;22.38;;;15.80;;
25069;SDS011;13064;48.162;11.536;2023-03-01T14:27:13;23.80;;;17.27;;
25069;SDS011;13064;48.162;11.536;2023-03-01T14:29:41;26.27;;;16.95;;
25069;SDS011;13064;48.162;11.536;2023-03-01T14:32:19;22.77;;;15.23;;
25069;SDS011;13064;48.162;11.536;2023-03-01T14:34:48;21.83;;;16.15;;
25069;SDS011;13064;48.162;11.536;2023-03-01T14:39:47;25.38;;;16.33;;
25069;SDS011;13064;48.162;11.536;2023-03-01T14:42:15;21.05;;;15.95;;
25069;SDS011;13064;48.162;11.536;2023-03-01T14:44:44;22.98;;;15.75;;
25069;SDS011;13064;48.162;11.536;2023-03-01T14:47:23;22.98;;;16.55;;
25069;SDS011;13064;48.162;11.536;2023-03-01T14:50:00;27.77;;;16.17;;
25069;SDS011;13064;48.162;11.536;2023-03-01T14:52:33;23.67;;;16.15;;
25069;SDS011;13064;48.162;11.536;2023-03-01T14:55:04;23.20;;;16.48;;
25069;SDS011;13064;48.162;11.536;2023-03-01T14:57:32;26.90;;;16.25;;
25069;SDS011;13064;48.162;11.536;2023-03-01T15:00:01;30.52;;;16.23;;
25069;SDS011;13064;48.162;11.536;2023-03-01T15:02:31;26.58;;;14.85;;
25069;SDS011;13064;48.162;11.536;2023-03-01T15:05:01;21.25;;;14.70;;
25069;SDS011;13064;48.162;11.536;2023-03-01T15:07:35;21.15;;;14.88;;
25069;SDS011;13064;48.162;11.536;2023-03-01T15:10:05;22.83;;;14.65;;
25069;SDS011;13064;48.162;11.536;2023-03-01T15:12:38;25.40;;;15.57;;
25069;SDS011;13064;48.162;11.536;2023-03-01T15:17:55;19.77;;;14.07;;
25069;SDS011;13064;48.162;11.536;2023-03-01T15:20:24;22.50;;;14.77;;
25069;SDS011;13064;48.162;11.536;2023-03-01T15:22:54;25.92;;;14.52;;
25069;SDS011;13064;48.162;11.536;2023-03-01T15:25:26;23.05;;;15.00;;
25069;SDS011;13064;48.162;11.536;2023-03-01T15:27:54;21.75;;;14.32;;
25069;SDS011;13064;48.162;11.536;2023-03-01T15:30:30;22.85;;;15.48;;
25069;SDS011;13064;48.162;11.536;2023-03-01T15:33:17;22.48;;;14.80;;
25069;SDS011;13064;48.162;11.536;2023-03-01T15:35:48;23.58;;;14.38;;
25069;SDS011;13064;48.162;11.536;2023-03-01T15:38:23;20.13;;;14.10;;
25069;SDS011;13064;48.162;11.536;2023-03-01T15:40:52;19.80;;;13.88;;
25069;SDS011;13064;48.162;11.536;2023-03-01T15:43:39;20.98;;;13.77;;
25069;SDS011;13064;48.162;11.536;2023-03-01T15:46:18;21.35;;;14.10;;
25069;SDS011;13064;48.162;11.536;2023-03-01T15:48:47;20.77;;;14.18;;
25069;SDS011;13064;48.162;11.536;2023-03-01T15:51:19;21.87;;;13.70;;
25069;SDS011;13064;48.162;11.536;2023-03-01T15:53:50;20.55;;;14.20;;
25069;SDS011;13064;48.162;11.536;2023-03-01T15:56:20;21.83;;;13.37;;
25069;SDS011;13064;48.162;11.536;2023-03-01T15:58:48;20.05;;;13.88;;
25069;SDS011;13064;48.162;11.536;2023-03-01T16:01:17;21.02;;;13.77;;
25069;SDS011;13064;48.162;11.536;2023-03-01T16:03:45;19.48;;;13.35;;
25069;SDS011;13064;48.162;11.536;2023-03-01T16:06:12;20.67;;;13.05;;
25069;SDS011;13064;48.162;11.536;2023-03-01T16:08:40;22.58;;;14.02;;
25069;SDS011;13064;48.162;11.536;2023-03-01T16:11:13;20.02;;;12.93;;
25069;SDS011;13064;48.162;11.536;2023-03-01T16:13:41;18.77;;;13.52;;
25069;SDS011;13064;48.162;11.536;2023-03-01T16:16:12;23.33;;;13.93;;
25069;SDS011;13064;48.162;11.536;2023-03-01T16:18:43;23.52;;;13.05;;